GLD1204 SBTC-SBSG
Flight info
| Callsign | GLD1204 |
|---|---|
| Flight time | 1h 37m |
| Altitude | 45000 |
| Route | DAKEN UZ42 ANBEX DCT SAFUC |
| Aircraft | C700/M-SBDGHM1RWXY/LB2 |
Departure
| Time | 2026-04-24 00:01 |
|---|---|
| Airport | Una-Comandatuba Airport (SBTC) |
Arrival
| Time | 2026-04-24 01:39 |
|---|---|
| Airport | Rio Grande do Norte/São Gonçalo do Amarante–Governador Aluízio Alves International Airport (SBSG) |
| Time | Latitude | Longitude | Altitude | Speed | Heading |
|---|---|---|---|---|---|
| 2026-04-23 23:49 | -15.35703 | -38.99632 | 26 ft | 0 kts | 223° |
| 2026-04-23 23:58 | -15.35715 | -38.99646 | 30 ft | 7 kts | 237° |
| 2026-04-23 23:59 | -15.35731 | -38.99725 | 27 ft | 15 kts | 262° |
| 2026-04-23 23:59 | -15.35751 | -38.99813 | 27 ft | 8 kts | 230° |
| 2026-04-23 23:59 | -15.35812 | -38.99823 | 26 ft | 11 kts | 182° |
| 2026-04-23 23:59 | -15.35895 | -38.99819 | 27 ft | 13 kts | 173° |
| 2026-04-24 00:00 | -15.35993 | -38.99807 | 28 ft | 15 kts | 174° |
| 2026-04-24 00:00 | -15.36107 | -38.99795 | 26 ft | 18 kts | 175° |
| 2026-04-24 00:00 | -15.36240 | -38.99784 | 27 ft | 20 kts | 176° |
| 2026-04-24 00:00 | -15.36347 | -38.99773 | 26 ft | 3 kts | 132° |
| 2026-04-24 00:01 | -15.36340 | -38.99765 | 26 ft | 0 kts | 16° |
| 2026-04-24 00:01 | -15.36203 | -38.99785 | 26 ft | 60 kts | 353° |
| 2026-04-24 00:01 | -15.35438 | -38.99859 | 55 ft | 155 kts | 354° |
| 2026-04-24 00:01 | -15.34252 | -38.99991 | 944 ft | 177 kts | 353° |
| 2026-04-24 00:02 | -15.32912 | -39.00168 | 2020 ft | 210 kts | 353° |
| 2026-04-24 00:02 | -15.31389 | -39.00371 | 3262 ft | 230 kts | 356° |
| 2026-04-24 00:02 | -15.29833 | -39.00009 | 4613 ft | 237 kts | 36° |
| 2026-04-24 00:02 | -15.28547 | -38.98843 | 5980 ft | 258 kts | 45° |
| 2026-04-24 00:03 | -15.27084 | -38.97666 | 7457 ft | 271 kts | 35° |
| 2026-04-24 00:03 | -15.25393 | -38.96751 | 9128 ft | 279 kts | 27° |
| 2026-04-24 00:03 | -15.23612 | -38.95939 | 10581 ft | 292 kts | 26° |
| 2026-04-24 00:03 | -15.21703 | -38.94986 | 11661 ft | 316 kts | 28° |
| 2026-04-24 00:04 | -15.19841 | -38.94001 | 13120 ft | 322 kts | 28° |
| 2026-04-24 00:04 | -15.17808 | -38.92951 | 14541 ft | 332 kts | 26° |
| 2026-04-24 00:04 | -15.15724 | -38.91851 | 15874 ft | 341 kts | 28° |
| 2026-04-24 00:04 | -15.14293 | -38.91079 | 16792 ft | 347 kts | 27° |
| 2026-04-24 00:05 | -15.11393 | -38.89556 | 18502 ft | 359 kts | 27° |
| 2026-04-24 00:05 | -15.10156 | -38.88900 | 19125 ft | 363 kts | 27° |
| 2026-04-24 00:05 | -15.07890 | -38.87683 | 20276 ft | 371 kts | 28° |
| 2026-04-24 00:05 | -15.05579 | -38.86441 | 21383 ft | 378 kts | 28° |
| 2026-04-24 00:06 | -15.03219 | -38.85181 | 22452 ft | 385 kts | 28° |
| 2026-04-24 00:06 | -15.00810 | -38.83898 | 23507 ft | 393 kts | 28° |
| 2026-04-24 00:06 | -14.98358 | -38.82587 | 24381 ft | 399 kts | 29° |
| 2026-04-24 00:06 | -14.95875 | -38.81260 | 25256 ft | 405 kts | 29° |
| 2026-04-24 00:07 | -14.93355 | -38.79916 | 26118 ft | 410 kts | 29° |
| 2026-04-24 00:07 | -14.90803 | -38.78554 | 26952 ft | 416 kts | 30° |
| 2026-04-24 00:07 | -14.88221 | -38.77176 | 27783 ft | 421 kts | 30° |
| 2026-04-24 00:07 | -14.85594 | -38.75775 | 28663 ft | 428 kts | 30° |
| 2026-04-24 00:08 | -14.82932 | -38.74356 | 29478 ft | 433 kts | 30° |
| 2026-04-24 00:08 | -14.80238 | -38.72921 | 30249 ft | 438 kts | 31° |
| 2026-04-24 00:08 | -14.77516 | -38.71470 | 30926 ft | 443 kts | 31° |
| 2026-04-24 00:08 | -14.74763 | -38.70002 | 31590 ft | 447 kts | 30° |
| 2026-04-24 00:09 | -14.71984 | -38.68523 | 32349 ft | 452 kts | 31° |
| 2026-04-24 00:09 | -14.69172 | -38.67026 | 32957 ft | 457 kts | 31° |
| 2026-04-24 00:09 | -14.66588 | -38.65651 | 33581 ft | 458 kts | 31° |
| 2026-04-24 00:09 | -14.63766 | -38.64153 | 34394 ft | 455 kts | 31° |
| 2026-04-24 00:10 | -14.60965 | -38.62662 | 35144 ft | 451 kts | 30° |
| 2026-04-24 00:10 | -14.58184 | -38.61182 | 35893 ft | 448 kts | 30° |
| 2026-04-24 00:10 | -14.55427 | -38.59716 | 36632 ft | 445 kts | 30° |
| 2026-04-24 00:10 | -14.52685 | -38.58259 | 37368 ft | 441 kts | 30° |
| 2026-04-24 00:11 | -14.49966 | -38.56815 | 38082 ft | 438 kts | 30° |
| 2026-04-24 00:11 | -14.47266 | -38.55380 | 38782 ft | 436 kts | 30° |
| 2026-04-24 00:11 | -14.44576 | -38.53951 | 39332 ft | 434 kts | 30° |
| 2026-04-24 00:11 | -14.41894 | -38.52527 | 39844 ft | 433 kts | 30° |
| 2026-04-24 00:12 | -14.39217 | -38.51106 | 40357 ft | 432 kts | 29° |
| 2026-04-24 00:12 | -14.36546 | -38.49689 | 40864 ft | 431 kts | 29° |
| 2026-04-24 00:12 | -14.33883 | -38.48276 | 41372 ft | 430 kts | 29° |
| 2026-04-24 00:12 | -14.31222 | -38.46865 | 41871 ft | 430 kts | 29° |
| 2026-04-24 00:13 | -14.28568 | -38.45458 | 42345 ft | 429 kts | 28° |
| 2026-04-24 00:13 | -14.25911 | -38.44049 | 42820 ft | 429 kts | 28° |
| 2026-04-24 00:13 | -14.23297 | -38.42664 | 43286 ft | 428 kts | 28° |
| 2026-04-24 00:13 | -14.20651 | -38.41262 | 43754 ft | 428 kts | 27° |
| 2026-04-24 00:14 | -14.18007 | -38.39863 | 44219 ft | 427 kts | 27° |
| 2026-04-24 00:14 | -14.15364 | -38.38463 | 44662 ft | 427 kts | 27° |
| 2026-04-24 00:14 | -14.12728 | -38.37067 | 44964 ft | 428 kts | 27° |
| 2026-04-24 00:14 | -14.10049 | -38.35649 | 44964 ft | 437 kts | 27° |
| 2026-04-24 00:15 | -14.04525 | -38.32727 | 44974 ft | 455 kts | 27° |
| 2026-04-24 00:15 | -13.98810 | -38.29706 | 44986 ft | 462 kts | 27° |
| 2026-04-24 00:16 | -13.93211 | -38.26745 | 44974 ft | 444 kts | 27° |
| 2026-04-24 00:16 | -13.87806 | -38.23896 | 45026 ft | 428 kts | 27° |
| 2026-04-24 00:17 | -13.82592 | -38.21139 | 45024 ft | 415 kts | 26° |
| 2026-04-24 00:17 | -13.77531 | -38.18461 | 45024 ft | 403 kts | 27° |
| 2026-04-24 00:18 | -13.72614 | -38.15852 | 45023 ft | 392 kts | 26° |
| 2026-04-24 00:18 | -13.67834 | -38.13308 | 45024 ft | 382 kts | 27° |
| 2026-04-24 00:19 | -13.63176 | -38.10825 | 45028 ft | 372 kts | 26° |
| 2026-04-24 00:19 | -13.58634 | -38.08403 | 45023 ft | 363 kts | 26° |
| 2026-04-24 00:20 | -13.54204 | -38.06035 | 45021 ft | 355 kts | 27° |
| 2026-04-24 00:20 | -13.50153 | -38.03868 | 45024 ft | 347 kts | 26° |
| 2026-04-24 00:21 | -13.45928 | -38.01607 | 45016 ft | 338 kts | 26° |
| 2026-04-24 00:21 | -13.41797 | -37.99385 | 45024 ft | 335 kts | 27° |
| 2026-04-24 00:22 | -13.37552 | -37.97109 | 45033 ft | 354 kts | 27° |
| 2026-04-24 00:22 | -13.33063 | -37.94709 | 45044 ft | 374 kts | 27° |
| 2026-04-24 00:23 | -13.28323 | -37.92181 | 45045 ft | 394 kts | 27° |
| 2026-04-24 00:23 | -13.23342 | -37.89531 | 45047 ft | 413 kts | 27° |
| 2026-04-24 00:24 | -13.18126 | -37.86755 | 45046 ft | 432 kts | 27° |
| 2026-04-24 00:24 | -13.12679 | -37.83861 | 45040 ft | 450 kts | 27° |
| 2026-04-24 00:25 | -13.06956 | -37.80973 | 45039 ft | 467 kts | 22° |
| 2026-04-24 00:25 | -13.00898 | -37.78365 | 45034 ft | 468 kts | 25° |
| 2026-04-24 00:26 | -12.98069 | -37.76826 | 45031 ft | 454 kts | 29° |
| 2026-04-24 00:26 | -12.95363 | -37.75240 | 45028 ft | 444 kts | 28° |
| 2026-04-24 00:26 | -12.89824 | -37.72427 | 45016 ft | 446 kts | 25° |
| 2026-04-24 00:27 | -12.84291 | -37.69497 | 45019 ft | 449 kts | 27° |
| 2026-04-24 00:27 | -12.78742 | -37.66607 | 45025 ft | 452 kts | 26° |
| 2026-04-24 00:28 | -12.73120 | -37.63670 | 45033 ft | 455 kts | 27° |
| 2026-04-24 00:28 | -12.67463 | -37.60712 | 45032 ft | 457 kts | 26° |
| 2026-04-24 00:29 | -12.61779 | -37.57749 | 45030 ft | 459 kts | 27° |
| 2026-04-24 00:29 | -12.56093 | -37.54775 | 45029 ft | 459 kts | 27° |
| 2026-04-24 00:30 | -12.50409 | -37.51780 | 45034 ft | 459 kts | 27° |
| 2026-04-24 00:30 | -12.44696 | -37.48859 | 45033 ft | 459 kts | 26° |
| 2026-04-24 00:31 | -12.39015 | -37.45869 | 45026 ft | 459 kts | 27° |
| 2026-04-24 00:31 | -12.33304 | -37.42912 | 45027 ft | 460 kts | 26° |
| 2026-04-24 00:32 | -12.27600 | -37.39936 | 45024 ft | 461 kts | 27° |
| 2026-04-24 00:32 | -12.21885 | -37.36967 | 45027 ft | 461 kts | 26° |
| 2026-04-24 00:33 | -12.16167 | -37.33992 | 45023 ft | 461 kts | 26° |
| 2026-04-24 00:33 | -12.10448 | -37.31021 | 45025 ft | 461 kts | 26° |
| 2026-04-24 00:34 | -12.04730 | -37.28050 | 45027 ft | 461 kts | 26° |
| 2026-04-24 00:34 | -11.99069 | -37.25112 | 45022 ft | 461 kts | 26° |
| 2026-04-24 00:35 | -11.93307 | -37.22122 | 45024 ft | 462 kts | 26° |
| 2026-04-24 00:35 | -11.87578 | -37.19150 | 45027 ft | 461 kts | 26° |
| 2026-04-24 00:36 | -11.81852 | -37.16182 | 45028 ft | 461 kts | 26° |
| 2026-04-24 00:36 | -11.76135 | -37.13220 | 45028 ft | 461 kts | 26° |
| 2026-04-24 00:37 | -11.70416 | -37.10257 | 45023 ft | 461 kts | 26° |
| 2026-04-24 00:37 | -11.64695 | -37.07295 | 45017 ft | 461 kts | 26° |
| 2026-04-24 00:38 | -11.58994 | -37.04347 | 45024 ft | 461 kts | 26° |
| 2026-04-24 00:38 | -11.53279 | -37.01394 | 45025 ft | 461 kts | 26° |
| 2026-04-24 00:39 | -11.47560 | -36.98442 | 45022 ft | 461 kts | 26° |
| 2026-04-24 00:39 | -11.41848 | -36.95493 | 45014 ft | 460 kts | 25° |
| 2026-04-24 00:40 | -11.36134 | -36.92549 | 45014 ft | 460 kts | 26° |
| 2026-04-24 00:40 | -11.30425 | -36.89603 | 45014 ft | 460 kts | 26° |
| 2026-04-24 00:41 | -11.24704 | -36.86658 | 45016 ft | 461 kts | 26° |
| 2026-04-24 00:41 | -11.18985 | -36.83710 | 45010 ft | 461 kts | 25° |
| 2026-04-24 00:42 | -11.13299 | -36.80783 | 45012 ft | 461 kts | 25° |
| 2026-04-24 00:42 | -11.07572 | -36.77836 | 45012 ft | 461 kts | 25° |
| 2026-04-24 00:43 | -11.01849 | -36.74892 | 45004 ft | 461 kts | 25° |
| 2026-04-24 00:43 | -10.96119 | -36.71946 | 45008 ft | 461 kts | 25° |
| 2026-04-24 00:44 | -10.90384 | -36.68999 | 45009 ft | 462 kts | 25° |
| 2026-04-24 00:44 | -10.84654 | -36.66055 | 45009 ft | 462 kts | 25° |
| 2026-04-24 00:45 | -10.78907 | -36.63130 | 45005 ft | 462 kts | 25° |
| 2026-04-24 00:45 | -10.73133 | -36.60245 | 45008 ft | 463 kts | 25° |
| 2026-04-24 00:46 | -10.67377 | -36.57329 | 45010 ft | 462 kts | 25° |
| 2026-04-24 00:46 | -10.61605 | -36.54435 | 45003 ft | 462 kts | 25° |
| 2026-04-24 00:47 | -10.55841 | -36.51527 | 45004 ft | 462 kts | 25° |
| 2026-04-24 00:47 | -10.50078 | -36.48633 | 45001 ft | 462 kts | 25° |
| 2026-04-24 00:48 | -10.44320 | -36.45736 | 45005 ft | 462 kts | 25° |
| 2026-04-24 00:48 | -10.38600 | -36.42863 | 45007 ft | 462 kts | 25° |
| 2026-04-24 00:49 | -10.32844 | -36.39971 | 45001 ft | 461 kts | 25° |
| 2026-04-24 00:49 | -10.27095 | -36.37084 | 45003 ft | 461 kts | 25° |
| 2026-04-24 00:50 | -10.21339 | -36.34196 | 45001 ft | 462 kts | 25° |
| 2026-04-24 00:50 | -10.15571 | -36.31301 | 45002 ft | 463 kts | 25° |
| 2026-04-24 00:51 | -10.09799 | -36.28407 | 45007 ft | 462 kts | 26° |
| 2026-04-24 00:51 | -10.04044 | -36.25522 | 45007 ft | 461 kts | 26° |
| 2026-04-24 00:52 | -9.98295 | -36.22641 | 45009 ft | 460 kts | 26° |
| 2026-04-24 00:52 | -9.92567 | -36.19771 | 45007 ft | 458 kts | 26° |
| 2026-04-24 00:53 | -9.86854 | -36.16911 | 45007 ft | 458 kts | 26° |
| 2026-04-24 00:53 | -9.81149 | -36.14056 | 45004 ft | 457 kts | 26° |
| 2026-04-24 00:54 | -9.76432 | -36.11696 | 45007 ft | 457 kts | 26° |
| 2026-04-24 00:54 | -9.70727 | -36.08843 | 45007 ft | 457 kts | 26° |
| 2026-04-24 00:55 | -9.65028 | -36.05992 | 45010 ft | 456 kts | 26° |
| 2026-04-24 00:55 | -9.59336 | -36.03148 | 45006 ft | 455 kts | 26° |
| 2026-04-24 00:56 | -9.53661 | -36.00313 | 45015 ft | 455 kts | 26° |
| 2026-04-24 00:56 | -9.47984 | -35.97478 | 45012 ft | 455 kts | 26° |
| 2026-04-24 00:57 | -9.42312 | -35.94647 | 45012 ft | 454 kts | 26° |
| 2026-04-24 00:58 | -9.33809 | -35.90403 | 45015 ft | 454 kts | 26° |
| 2026-04-24 00:58 | -9.28137 | -35.87575 | 45022 ft | 454 kts | 26° |
| 2026-04-24 00:59 | -9.22478 | -35.84753 | 45012 ft | 453 kts | 26° |
| 2026-04-24 00:59 | -9.16822 | -35.81934 | 45015 ft | 453 kts | 26° |
| 2026-04-24 01:00 | -9.11176 | -35.79120 | 45029 ft | 453 kts | 26° |
| 2026-04-24 01:00 | -9.05524 | -35.76306 | 45016 ft | 452 kts | 26° |
| 2026-04-24 01:01 | -8.99739 | -35.73836 | 45018 ft | 452 kts | 16° |
| 2026-04-24 01:01 | -8.93746 | -35.72022 | 45019 ft | 453 kts | 17° |
| 2026-04-24 01:02 | -8.87719 | -35.70187 | 45016 ft | 452 kts | 17° |
| 2026-04-24 01:02 | -8.81696 | -35.68362 | 45020 ft | 452 kts | 17° |
| 2026-04-24 01:03 | -8.75671 | -35.66531 | 45020 ft | 452 kts | 17° |
| 2026-04-24 01:03 | -8.69646 | -35.64705 | 45011 ft | 452 kts | 17° |
| 2026-04-24 01:04 | -8.63624 | -35.62877 | 45013 ft | 452 kts | 17° |
| 2026-04-24 01:04 | -8.57601 | -35.61051 | 45012 ft | 452 kts | 17° |
| 2026-04-24 01:05 | -8.51582 | -35.59227 | 45012 ft | 452 kts | 17° |
| 2026-04-24 01:05 | -8.45564 | -35.57404 | 45012 ft | 452 kts | 17° |
| 2026-04-24 01:06 | -8.39534 | -35.55577 | 45007 ft | 453 kts | 17° |
| 2026-04-24 01:06 | -8.33501 | -35.53751 | 45005 ft | 453 kts | 17° |
| 2026-04-24 01:07 | -8.27464 | -35.51923 | 45002 ft | 453 kts | 17° |
| 2026-04-24 01:07 | -8.21428 | -35.50097 | 45003 ft | 453 kts | 18° |
| 2026-04-24 01:08 | -8.15391 | -35.48270 | 44999 ft | 453 kts | 18° |
| 2026-04-24 01:08 | -8.09350 | -35.46443 | 45001 ft | 453 kts | 17° |
| 2026-04-24 01:09 | -8.03303 | -35.44615 | 45003 ft | 454 kts | 17° |
| 2026-04-24 01:09 | -7.97253 | -35.42786 | 44994 ft | 454 kts | 18° |
| 2026-04-24 01:09 | -7.94209 | -35.41866 | 44665 ft | 460 kts | 18° |
| 2026-04-24 01:10 | -7.91146 | -35.40942 | 44032 ft | 459 kts | 18° |
| 2026-04-24 01:10 | -7.88102 | -35.40023 | 43404 ft | 455 kts | 18° |
| 2026-04-24 01:10 | -7.85085 | -35.39111 | 42798 ft | 451 kts | 18° |
| 2026-04-24 01:10 | -7.82088 | -35.38206 | 42204 ft | 448 kts | 18° |
| 2026-04-24 01:11 | -7.79108 | -35.37306 | 41630 ft | 447 kts | 18° |
| 2026-04-24 01:11 | -7.76122 | -35.36405 | 41070 ft | 449 kts | 18° |
| 2026-04-24 01:11 | -7.73155 | -35.35509 | 40533 ft | 453 kts | 18° |
| 2026-04-24 01:11 | -7.70123 | -35.34594 | 40006 ft | 456 kts | 18° |
| 2026-04-24 01:12 | -7.67086 | -35.33678 | 39497 ft | 453 kts | 18° |
| 2026-04-24 01:12 | -7.64082 | -35.32773 | 38998 ft | 448 kts | 18° |
| 2026-04-24 01:12 | -7.61115 | -35.31877 | 38471 ft | 442 kts | 18° |
| 2026-04-24 01:12 | -7.58180 | -35.30991 | 37739 ft | 439 kts | 18° |
| 2026-04-24 01:13 | -7.55257 | -35.30109 | 36981 ft | 438 kts | 18° |
| 2026-04-24 01:13 | -7.52342 | -35.29231 | 36241 ft | 437 kts | 18° |
| 2026-04-24 01:13 | -7.49438 | -35.28355 | 35530 ft | 435 kts | 18° |
| 2026-04-24 01:13 | -7.46550 | -35.27485 | 34840 ft | 433 kts | 18° |
| 2026-04-24 01:14 | -7.43676 | -35.26619 | 34164 ft | 430 kts | 18° |
| 2026-04-24 01:14 | -7.40816 | -35.25756 | 33423 ft | 427 kts | 18° |
| 2026-04-24 01:14 | -7.37973 | -35.24899 | 32677 ft | 425 kts | 18° |
| 2026-04-24 01:14 | -7.35147 | -35.24047 | 31948 ft | 423 kts | 18° |
| 2026-04-24 01:15 | -7.32329 | -35.23199 | 31244 ft | 423 kts | 17° |
| 2026-04-24 01:15 | -7.29508 | -35.22350 | 30543 ft | 423 kts | 18° |
| 2026-04-24 01:15 | -7.26680 | -35.21498 | 29694 ft | 425 kts | 17° |
| 2026-04-24 01:15 | -7.23845 | -35.20645 | 28787 ft | 425 kts | 18° |
| 2026-04-24 01:16 | -7.21015 | -35.19792 | 27909 ft | 424 kts | 17° |
| 2026-04-24 01:16 | -7.18192 | -35.18942 | 27062 ft | 423 kts | 17° |
| 2026-04-24 01:16 | -7.15389 | -35.18100 | 26237 ft | 416 kts | 17° |
| 2026-04-24 01:16 | -7.12642 | -35.17273 | 25432 ft | 409 kts | 17° |
| 2026-04-24 01:17 | -7.09939 | -35.16459 | 24652 ft | 402 kts | 17° |
| 2026-04-24 01:17 | -7.07278 | -35.15658 | 23888 ft | 396 kts | 17° |
| 2026-04-24 01:17 | -7.04654 | -35.14869 | 23060 ft | 391 kts | 17° |
| 2026-04-24 01:17 | -7.02065 | -35.14091 | 22189 ft | 388 kts | 17° |
| 2026-04-24 01:18 | -6.99490 | -35.13317 | 21333 ft | 385 kts | 18° |
| 2026-04-24 01:18 | -6.96936 | -35.12548 | 20504 ft | 381 kts | 18° |
| 2026-04-24 01:18 | -6.94408 | -35.11788 | 19693 ft | 378 kts | 18° |
| 2026-04-24 01:18 | -6.91805 | -35.11132 | 18904 ft | 403 kts | 9° |
| 2026-04-24 01:19 | -6.88909 | -35.11013 | 18119 ft | 423 kts | 358° |
| 2026-04-24 01:19 | -6.85995 | -35.11490 | 17252 ft | 426 kts | 348° |
| 2026-04-24 01:19 | -6.83141 | -35.12138 | 16415 ft | 424 kts | 349° |
| 2026-04-24 01:19 | -6.80273 | -35.12768 | 15589 ft | 419 kts | 349° |
| 2026-04-24 01:20 | -6.77401 | -35.13400 | 14771 ft | 414 kts | 349° |
| 2026-04-24 01:20 | -6.74605 | -35.14022 | 13989 ft | 409 kts | 349° |
| 2026-04-24 01:20 | -6.71839 | -35.14634 | 13144 ft | 404 kts | 349° |
| 2026-04-24 01:20 | -6.69107 | -35.15235 | 12282 ft | 399 kts | 349° |
| 2026-04-24 01:21 | -6.66412 | -35.15831 | 11442 ft | 394 kts | 349° |
| 2026-04-24 01:21 | -6.63789 | -35.16411 | 10638 ft | 389 kts | 349° |
| 2026-04-24 01:21 | -6.61331 | -35.16958 | 9833 ft | 347 kts | 349° |
| 2026-04-24 01:21 | -6.59019 | -35.17468 | 8946 ft | 336 kts | 349° |
| 2026-04-24 01:22 | -6.56757 | -35.17963 | 8094 ft | 330 kts | 349° |
| 2026-04-24 01:22 | -6.54533 | -35.18455 | 7259 ft | 326 kts | 349° |
| 2026-04-24 01:22 | -6.52327 | -35.18942 | 6446 ft | 323 kts | 349° |
| 2026-04-24 01:22 | -6.50203 | -35.19413 | 5979 ft | 292 kts | 349° |
| 2026-04-24 01:23 | -6.48276 | -35.19838 | 5965 ft | 278 kts | 349° |
| 2026-04-24 01:23 | -6.46416 | -35.20247 | 5977 ft | 270 kts | 349° |
| 2026-04-24 01:23 | -6.44596 | -35.20648 | 5994 ft | 266 kts | 349° |
| 2026-04-24 01:23 | -6.42794 | -35.21045 | 5990 ft | 264 kts | 349° |
| 2026-04-24 01:24 | -6.41003 | -35.21442 | 5990 ft | 263 kts | 349° |
| 2026-04-24 01:24 | -6.39216 | -35.21835 | 5990 ft | 263 kts | 349° |
| 2026-04-24 01:24 | -6.37431 | -35.22229 | 5992 ft | 262 kts | 349° |
| 2026-04-24 01:24 | -6.35650 | -35.22623 | 5991 ft | 262 kts | 349° |
| 2026-04-24 01:25 | -6.33871 | -35.23014 | 5994 ft | 262 kts | 349° |
| 2026-04-24 01:25 | -6.32089 | -35.23408 | 5989 ft | 262 kts | 349° |
| 2026-04-24 01:25 | -6.30308 | -35.23799 | 5992 ft | 262 kts | 349° |
| 2026-04-24 01:25 | -6.28578 | -35.24363 | 5992 ft | 263 kts | 334° |
| 2026-04-24 01:26 | -6.27053 | -35.25386 | 5992 ft | 264 kts | 324° |
| 2026-04-24 01:26 | -6.25482 | -35.26526 | 6000 ft | 290 kts | 326° |
| 2026-04-24 01:26 | -6.23885 | -35.27665 | 6008 ft | 275 kts | 326° |
| 2026-04-24 01:26 | -6.22343 | -35.28779 | 6005 ft | 272 kts | 326° |
| 2026-04-24 01:27 | -6.20810 | -35.29885 | 6008 ft | 271 kts | 326° |
| 2026-04-24 01:27 | -6.19275 | -35.30989 | 6001 ft | 271 kts | 326° |
| 2026-04-24 01:27 | -6.17746 | -35.32091 | 6005 ft | 270 kts | 326° |
| 2026-04-24 01:27 | -6.16215 | -35.33193 | 6005 ft | 271 kts | 326° |
| 2026-04-24 01:28 | -6.14683 | -35.34297 | 6004 ft | 271 kts | 326° |
| 2026-04-24 01:28 | -6.13150 | -35.35402 | 6005 ft | 271 kts | 326° |
| 2026-04-24 01:28 | -6.11638 | -35.36491 | 6005 ft | 271 kts | 326° |
| 2026-04-24 01:28 | -6.10105 | -35.37596 | 5998 ft | 271 kts | 326° |
| 2026-04-24 01:29 | -6.08571 | -35.38698 | 6001 ft | 271 kts | 326° |
| 2026-04-24 01:29 | -6.07038 | -35.39802 | 5998 ft | 271 kts | 326° |
| 2026-04-24 01:29 | -6.05509 | -35.40906 | 6001 ft | 271 kts | 326° |
| 2026-04-24 01:29 | -6.04086 | -35.41926 | 5997 ft | 271 kts | 326° |
| 2026-04-24 01:30 | -6.02552 | -35.43029 | 6003 ft | 271 kts | 326° |
| 2026-04-24 01:30 | -6.01020 | -35.44135 | 5999 ft | 271 kts | 326° |
| 2026-04-24 01:30 | -5.99487 | -35.45239 | 5997 ft | 270 kts | 326° |
| 2026-04-24 01:30 | -5.97999 | -35.46309 | 5994 ft | 254 kts | 326° |
| 2026-04-24 01:31 | -5.96595 | -35.47321 | 5905 ft | 245 kts | 326° |
| 2026-04-24 01:31 | -5.95209 | -35.48289 | 5730 ft | 241 kts | 327° |
| 2026-04-24 01:31 | -5.93835 | -35.49242 | 5558 ft | 239 kts | 327° |
| 2026-04-24 01:31 | -5.92443 | -35.50209 | 5403 ft | 256 kts | 327° |
| 2026-04-24 01:32 | -5.90858 | -35.51310 | 5379 ft | 297 kts | 326° |
| 2026-04-24 01:32 | -5.89032 | -35.52582 | 5447 ft | 335 kts | 326° |
| 2026-04-24 01:32 | -5.87174 | -35.53881 | 5422 ft | 313 kts | 326° |
| 2026-04-24 01:32 | -5.85406 | -35.55038 | 5099 ft | 295 kts | 334° |
| 2026-04-24 01:33 | -5.83497 | -35.55640 | 4731 ft | 282 kts | 352° |
| 2026-04-24 01:33 | -5.81601 | -35.55713 | 4355 ft | 263 kts | 8° |
| 2026-04-24 01:33 | -5.79868 | -35.55429 | 4073 ft | 243 kts | 13° |
| 2026-04-24 01:33 | -5.78314 | -35.54960 | 3792 ft | 226 kts | 28° |
| 2026-04-24 01:34 | -5.77041 | -35.54131 | 3525 ft | 207 kts | 42° |
| 2026-04-24 01:34 | -5.76110 | -35.53137 | 3267 ft | 186 kts | 56° |
| 2026-04-24 01:34 | -5.75481 | -35.52075 | 3023 ft | 169 kts | 67° |
| 2026-04-24 01:34 | -5.75105 | -35.51007 | 2808 ft | 157 kts | 76° |
| 2026-04-24 01:35 | -5.74926 | -35.49948 | 2558 ft | 149 kts | 91° |
| 2026-04-24 01:35 | -5.75036 | -35.48990 | 2377 ft | 130 kts | 97° |
| 2026-04-24 01:35 | -5.75139 | -35.48108 | 2235 ft | 121 kts | 99° |
| 2026-04-24 01:35 | -5.75263 | -35.47274 | 2078 ft | 123 kts | 99° |
| 2026-04-24 01:36 | -5.75395 | -35.46418 | 1921 ft | 126 kts | 99° |
| 2026-04-24 01:36 | -5.75542 | -35.45538 | 1760 ft | 126 kts | 98° |
| 2026-04-24 01:36 | -5.75678 | -35.44666 | 1587 ft | 127 kts | 101° |
| 2026-04-24 01:36 | -5.75819 | -35.43795 | 1420 ft | 125 kts | 101° |
| 2026-04-24 01:37 | -5.75967 | -35.42936 | 1257 ft | 125 kts | 99° |
| 2026-04-24 01:37 | -5.76095 | -35.42069 | 1098 ft | 124 kts | 101° |
| 2026-04-24 01:37 | -5.76247 | -35.41212 | 948 ft | 125 kts | 102° |
| 2026-04-24 01:37 | -5.76373 | -35.40344 | 786 ft | 127 kts | 100° |
| 2026-04-24 01:38 | -5.76532 | -35.39437 | 618 ft | 135 kts | 102° |
| 2026-04-24 01:38 | -5.76664 | -35.38543 | 459 ft | 128 kts | 101° |
| 2026-04-24 01:38 | -5.76813 | -35.37671 | 287 ft | 122 kts | 101° |
| 2026-04-24 01:38 | -5.76929 | -35.36958 | 269 ft | 81 kts | 101° |
| 2026-04-24 01:39 | -5.77008 | -35.36498 | 269 ft | 56 kts | 98° |
| 2026-04-24 01:39 | -5.77062 | -35.36202 | 268 ft | 23 kts | 87° |
| 2026-04-24 01:39 | -5.76987 | -35.36078 | 268 ft | 23 kts | 49° |
| 2026-04-24 01:39 | -5.76891 | -35.36033 | 268 ft | 11 kts | 284° |
| 2026-04-24 01:40 | -5.76891 | -35.36122 | 268 ft | 15 kts | 269° |
| 2026-04-24 01:40 | -5.76882 | -35.36238 | 268 ft | 19 kts | 278° |
| 2026-04-24 01:40 | -5.76861 | -35.36378 | 268 ft | 22 kts | 278° |
| 2026-04-24 01:40 | -5.76829 | -35.36539 | 268 ft | 25 kts | 287° |
| 2026-04-24 01:41 | -5.76797 | -35.36654 | 268 ft | 26 kts | 284° |
| 2026-04-24 01:41 | -5.76764 | -35.36812 | 268 ft | 7 kts | 282° |
| 2026-04-24 01:41 | -5.76687 | -35.36831 | 268 ft | 12 kts | 19° |
| 2026-04-24 01:41 | -5.76604 | -35.36810 | 268 ft | 14 kts | 11° |
| 2026-04-24 01:42 | -5.76558 | -35.36802 | 268 ft | 7 kts | 11° |
| 2026-04-24 01:42 | -5.76523 | -35.36795 | 268 ft | 5 kts | 12° |
| 2026-04-24 01:42 | -5.76522 | -35.36795 | 268 ft | 0 kts | 12° |